createdAt,value
2019-03-20T00:00:08.692Z,1.4
2019-03-20T00:01:18.229Z,1
2019-03-20T00:02:27.775Z,1.3
2019-03-20T00:03:37.313Z,1.8
2019-03-20T00:04:49.856Z,1.4
2019-03-20T00:05:57.330Z,1.7
2019-03-20T00:07:06.866Z,1.5
2019-03-20T00:08:16.408Z,1.5
2019-03-20T00:09:25.969Z,1.7
2019-03-20T00:10:35.487Z,1.4
2019-03-20T00:11:45.018Z,1.4
2019-03-20T00:12:54.579Z,1.2
2019-03-20T00:14:04.141Z,1.6
2019-03-20T00:15:13.651Z,1.4
2019-03-20T00:16:23.189Z,1.6
2019-03-20T00:17:32.726Z,1.6
2019-03-20T00:18:42.270Z,1.4
2019-03-20T00:19:51.811Z,1.5
2019-03-20T00:21:01.328Z,1.6
2019-03-20T00:22:10.871Z,1.1
2019-03-20T00:23:20.422Z,1.3
2019-03-20T00:24:29.964Z,1.3
2019-03-20T00:25:39.480Z,1.8
2019-03-20T00:26:49.060Z,1.6
2019-03-20T00:27:58.630Z,1.3
2019-03-20T00:29:08.166Z,1.1
2019-03-20T00:30:17.709Z,1.6
2019-03-20T00:31:27.243Z,1.7
2019-03-20T00:32:36.771Z,1.2
2019-03-20T00:33:46.298Z,1.4
2019-03-20T00:35:00.684Z,1.7
2019-03-20T00:36:06.326Z,1.1
2019-03-20T00:37:15.859Z,1.9
2019-03-20T00:38:25.401Z,1.6
2019-03-20T00:39:34.930Z,1.6
2019-03-20T00:40:44.454Z,1.2
2019-03-20T00:41:53.970Z,1.8
2019-03-20T00:43:03.503Z,1.7
2019-03-20T00:44:13.047Z,1.5
2019-03-20T00:45:22.590Z,1.2
2019-03-20T00:46:32.113Z,1.2
2019-03-20T00:47:41.651Z,1.2
2019-03-20T00:48:51.198Z,1.4
2019-03-20T00:50:00.729Z,1.6
2019-03-20T00:51:10.256Z,1.5
2019-03-20T00:52:19.798Z,1.7
2019-03-20T00:53:29.356Z,1.3
2019-03-20T00:54:38.889Z,1.7
2019-03-20T00:55:48.446Z,1.6
2019-03-20T00:56:57.967Z,1.5
2019-03-20T00:58:07.502Z,1.8
2019-03-20T00:59:17.045Z,1.3
2019-03-20T01:00:26.573Z,1.7
2019-03-20T01:01:36.135Z,1.9
2019-03-20T01:02:45.672Z,1.3
2019-03-20T01:03:55.223Z,1.1
2019-03-20T01:05:12.380Z,1.5
2019-03-20T01:06:15.265Z,1.8
2019-03-20T01:07:24.787Z,1.2
2019-03-20T01:08:34.330Z,1.7
2019-03-20T01:09:43.862Z,1.4
2019-03-20T01:10:53.387Z,1.6
2019-03-20T01:12:02.920Z,1.7
2019-03-20T01:13:12.455Z,1.3
2019-03-20T01:14:21.990Z,1.2
2019-03-20T01:15:31.523Z,1.8
2019-03-20T01:16:41.066Z,1.5
2019-03-20T01:17:50.590Z,1.9
2019-03-20T01:19:00.143Z,1.4
2019-03-20T01:20:09.676Z,1.3
2019-03-20T01:21:19.214Z,1.3
2019-03-20T01:22:28.744Z,1.3
2019-03-20T01:23:38.270Z,1.3
2019-03-20T01:24:47.813Z,1.7
2019-03-20T01:25:57.339Z,1.7
2019-03-20T01:27:06.875Z,1.7
2019-03-20T01:28:16.409Z,1.2
2019-03-20T01:29:25.961Z,2
2019-03-20T01:30:35.513Z,1.7
2019-03-20T01:31:45.041Z,1.8
2019-03-20T01:32:54.565Z,1.8
2019-03-20T01:34:04.118Z,1.4
2019-03-20T01:35:23.414Z,1.6
2019-03-20T01:36:24.166Z,1.2
2019-03-20T01:37:33.714Z,1.5
2019-03-20T01:38:43.247Z,1.4
2019-03-20T01:39:52.783Z,1.2
2019-03-20T01:41:02.307Z,1.7
2019-03-20T01:42:11.841Z,1.3
2019-03-20T01:43:21.361Z,1.8
2019-03-20T01:44:30.939Z,1
2019-03-20T01:45:40.456Z,1.2
2019-03-20T01:46:49.997Z,1.3
2019-03-20T01:47:59.523Z,1.3
2019-03-20T01:49:09.078Z,1.5
2019-03-20T01:50:18.617Z,1.6
2019-03-20T01:51:28.137Z,1
2019-03-20T01:52:37.689Z,1.1
2019-03-20T01:53:47.210Z,1.6
2019-03-20T01:54:56.743Z,1
2019-03-20T01:56:06.268Z,1.8
2019-03-20T01:57:15.812Z,1.2
2019-03-20T01:58:25.343Z,1
2019-03-20T01:59:34.916Z,1.4
2019-03-20T02:00:44.440Z,1.2
2019-03-20T02:01:53.978Z,1.3
2019-03-20T02:03:03.499Z,1
2019-03-20T02:04:13.061Z,1.2
2019-03-20T02:05:22.599Z,1.4
2019-03-20T02:06:32.137Z,1.8
2019-03-20T02:07:41.686Z,1.3
2019-03-20T02:08:51.197Z,1.4
2019-03-20T02:10:00.764Z,1
2019-03-20T02:11:10.282Z,1.1
2019-03-20T02:12:19.808Z,1.3
2019-03-20T02:13:29.344Z,1.2
2019-03-20T02:14:38.888Z,0.9
2019-03-20T02:15:48.417Z,0.8
2019-03-20T02:16:57.975Z,1.1
2019-03-20T02:18:07.483Z,1.2
2019-03-20T02:19:17.000Z,1.2
2019-03-20T02:20:26.596Z,1.4
2019-03-20T02:21:36.068Z,1.5
2019-03-20T02:22:45.611Z,1.1
2019-03-20T02:23:55.165Z,1.3
2019-03-20T02:25:04.698Z,1.1
2019-03-20T02:26:14.238Z,1.1
2019-03-20T02:27:23.758Z,0.9
2019-03-20T02:28:33.293Z,1.5
2019-03-20T02:29:42.828Z,1.3
2019-03-20T02:30:52.347Z,1.1
2019-03-20T02:32:01.878Z,1.7
2019-03-20T02:33:11.423Z,1.1
2019-03-20T02:34:20.937Z,1.4
2019-03-20T02:35:30.472Z,1.4
2019-03-20T02:36:40.007Z,1
2019-03-20T02:37:49.561Z,1.5
2019-03-20T02:38:59.092Z,0.8
2019-03-20T02:40:08.636Z,2.1
2019-03-20T02:41:18.173Z,1.2
2019-03-20T02:42:27.690Z,1.3
2019-03-20T02:43:37.227Z,1
2019-03-20T02:44:46.768Z,1.5
2019-03-20T02:45:56.300Z,1.3
2019-03-20T02:47:05.840Z,1.3
2019-03-20T02:48:15.364Z,1.4
2019-03-20T02:49:24.896Z,1.3
2019-03-20T02:50:34.451Z,1.1
2019-03-20T02:51:43.988Z,1.2
2019-03-20T02:52:53.507Z,0.7
2019-03-20T02:54:03.061Z,1.4
2019-03-20T02:55:12.589Z,1.3
2019-03-20T02:56:23.130Z,1
2019-03-20T02:57:32.652Z,0.8
2019-03-20T02:58:42.181Z,1.2
2019-03-20T02:59:51.733Z,0.9
2019-03-20T03:01:01.243Z,0.7
2019-03-20T03:02:10.774Z,1.1
2019-03-20T03:03:20.294Z,1
2019-03-20T03:04:29.828Z,0.9
2019-03-20T03:05:39.394Z,1.2
2019-03-20T03:06:48.950Z,1.1
2019-03-20T03:07:58.493Z,1.5
2019-03-20T03:09:08.018Z,0.9
2019-03-20T03:10:17.573Z,1.2
2019-03-20T03:11:27.095Z,0.9
2019-03-20T03:12:36.640Z,1
2019-03-20T03:13:46.181Z,1.3
2019-03-20T03:14:55.697Z,1.2
2019-03-20T03:16:05.252Z,1.1
2019-03-20T03:17:14.784Z,1.3
2019-03-20T03:18:24.311Z,0.9
2019-03-20T03:19:33.850Z,1.1
2019-03-20T03:20:43.426Z,1.2
2019-03-20T03:21:52.950Z,1.2
2019-03-20T03:23:02.477Z,1
2019-03-20T03:24:12.019Z,1
2019-03-20T03:25:21.543Z,1.3
2019-03-20T03:26:31.117Z,1.4
2019-03-20T03:27:40.643Z,1.7
2019-03-20T03:28:50.170Z,1.5
2019-03-20T03:29:59.709Z,1.1
2019-03-20T03:31:09.271Z,1
2019-03-20T03:32:18.788Z,1
2019-03-20T03:33:28.316Z,1.1
2019-03-20T03:34:37.845Z,1
2019-03-20T03:35:47.395Z,0.9
2019-03-20T03:36:56.936Z,1.1
2019-03-20T03:38:06.461Z,0.9
2019-03-20T03:39:16.009Z,1.3
2019-03-20T03:40:25.564Z,1.2
2019-03-20T03:41:35.099Z,1
2019-03-20T03:42:44.628Z,1
2019-03-20T03:43:54.175Z,0.9
2019-03-20T03:45:03.686Z,1.4
2019-03-20T03:46:13.235Z,1
2019-03-20T03:47:22.840Z,1
2019-03-20T03:48:32.443Z,0.9
2019-03-20T03:49:41.973Z,0.8
2019-03-20T03:50:51.496Z,1.1
2019-03-20T03:52:01.041Z,0.8
2019-03-20T03:53:10.560Z,1
2019-03-20T03:54:20.113Z,1.4
2019-03-20T03:55:29.637Z,1.1
2019-03-20T03:56:39.181Z,1.3
2019-03-20T03:57:48.715Z,1.3
2019-03-20T03:58:58.245Z,1
2019-03-20T04:00:07.780Z,1.1
2019-03-20T04:01:17.328Z,1
2019-03-20T04:02:26.861Z,1.2
2019-03-20T04:03:36.408Z,1.4
2019-03-20T04:04:45.914Z,0.9
2019-03-20T04:05:55.503Z,0.8
2019-03-20T04:07:05.037Z,0.9
2019-03-20T04:08:14.557Z,1
2019-03-20T04:09:24.095Z,1.4
2019-03-20T04:10:33.654Z,0.8
2019-03-20T04:11:43.210Z,1.5
2019-03-20T04:12:52.721Z,1.3
2019-03-20T04:14:02.254Z,0.9
2019-03-20T04:15:11.800Z,0.8
2019-03-20T04:16:21.314Z,0.7
2019-03-20T04:17:30.880Z,0.9
2019-03-20T04:18:40.401Z,1.3
2019-03-20T04:19:49.939Z,0.8
2019-03-20T04:20:59.467Z,1.3
2019-03-20T04:22:09.023Z,1.2
2019-03-20T04:23:18.548Z,1.5
2019-03-20T04:24:28.059Z,1.3
2019-03-20T04:25:37.590Z,1
2019-03-20T04:26:47.169Z,1
2019-03-20T04:27:56.699Z,1.3
2019-03-20T04:29:06.223Z,1.6
2019-03-20T04:30:15.833Z,0.9
2019-03-20T04:31:25.293Z,2
2019-03-20T04:32:34.830Z,1.4
2019-03-20T04:33:44.379Z,1.2
2019-03-20T04:34:53.904Z,1.2
2019-03-20T04:36:03.431Z,1.2
2019-03-20T04:37:12.988Z,1
2019-03-20T04:38:23.519Z,1.4
2019-03-20T04:39:33.051Z,0.9
2019-03-20T04:40:42.606Z,1.2
2019-03-20T04:41:52.127Z,1.1
2019-03-20T04:43:01.670Z,1
2019-03-20T04:44:11.198Z,1.1
2019-03-20T04:45:21.749Z,1.3
2019-03-20T04:46:31.273Z,1.2
2019-03-20T04:47:40.809Z,1.2
2019-03-20T04:48:50.359Z,1
2019-03-20T04:49:59.881Z,1.2
2019-03-20T04:51:09.425Z,1.2
2019-03-20T04:52:18.965Z,1.1
2019-03-20T04:53:28.501Z,0.9
2019-03-20T04:54:38.027Z,1.1
2019-03-20T04:55:47.573Z,1
2019-03-20T04:56:57.096Z,0.9
2019-03-20T04:58:06.622Z,0.9
2019-03-20T04:59:16.140Z,0.9
2019-03-20T05:00:25.679Z,1.2
2019-03-20T05:01:35.245Z,0.9
2019-03-20T05:02:44.774Z,1.4
2019-03-20T05:03:54.298Z,1.3
2019-03-20T05:05:03.829Z,1.2
2019-03-20T05:06:13.376Z,1
2019-03-20T05:07:22.906Z,0.9
2019-03-20T05:08:32.449Z,1.1
2019-03-20T05:09:41.989Z,0.8
2019-03-20T05:10:51.559Z,1.1
2019-03-20T05:12:01.098Z,1
2019-03-20T05:13:10.627Z,1
2019-03-20T05:14:20.150Z,1.1
2019-03-20T05:15:29.690Z,0.9
2019-03-20T05:16:39.227Z,1.2
2019-03-20T05:17:48.771Z,1
2019-03-20T05:18:58.294Z,1
2019-03-20T05:20:07.832Z,1
2019-03-20T05:21:17.455Z,1.2
2019-03-20T05:22:26.983Z,1.3
2019-03-20T05:23:37.530Z,0.9
2019-03-20T05:24:47.051Z,1.3
2019-03-20T05:25:56.598Z,1.1
2019-03-20T05:27:06.120Z,0.8
2019-03-20T05:28:15.652Z,1.1
2019-03-20T05:29:25.196Z,1.2
2019-03-20T05:30:34.725Z,1.5
2019-03-20T05:31:44.277Z,1.2
2019-03-20T05:32:53.810Z,0.9
2019-03-20T05:34:04.341Z,1.2
2019-03-20T05:35:13.893Z,1
2019-03-20T05:36:23.419Z,1
2019-03-20T05:37:32.977Z,1
2019-03-20T05:38:42.515Z,0.8
2019-03-20T05:39:52.042Z,0.7
2019-03-20T05:41:01.603Z,1.1
2019-03-20T05:42:11.139Z,1.2
2019-03-20T05:43:20.710Z,1.7
2019-03-20T05:44:30.352Z,1
2019-03-20T05:45:40.009Z,0.9
2019-03-20T05:46:49.570Z,0.9
2019-03-20T05:47:59.105Z,1.4
2019-03-20T05:49:08.626Z,0.8
2019-03-20T05:50:18.154Z,1.2
2019-03-20T05:51:27.715Z,1.5
2019-03-20T05:52:37.244Z,1.1
2019-03-20T05:53:46.783Z,1.1
2019-03-20T05:54:56.304Z,1
2019-03-20T05:56:05.858Z,0.9
2019-03-20T05:57:15.394Z,1.5
2019-03-20T05:58:24.927Z,1.4
2019-03-20T05:59:34.475Z,1.4
2019-03-20T06:00:44.039Z,1.1
2019-03-20T06:01:53.560Z,1.4
2019-03-20T06:03:03.116Z,1.5
2019-03-20T06:04:12.631Z,1.4
2019-03-20T06:05:22.191Z,1.1
2019-03-20T06:06:31.952Z,1
2019-03-20T06:07:41.478Z,1.2
2019-03-20T06:08:51.026Z,1.2
2019-03-20T06:10:00.554Z,1.8
2019-03-20T06:11:10.109Z,1.4
2019-03-20T06:12:20.903Z,1.5
2019-03-20T06:13:30.428Z,1.3
2019-03-20T06:14:39.966Z,1.9
2019-03-20T06:15:49.505Z,2
2019-03-20T06:16:59.056Z,2.3
2019-03-20T06:18:08.600Z,1.7
2019-03-20T06:19:18.123Z,2.1
2019-03-20T06:20:27.692Z,1.3
2019-03-20T06:21:37.233Z,1.4
2019-03-20T06:22:46.767Z,1.2
2019-03-20T06:23:56.286Z,1.6
2019-03-20T06:25:05.825Z,1.3
2019-03-20T06:26:15.402Z,1.3
2019-03-20T06:27:24.912Z,1.2
2019-03-20T06:28:34.434Z,0.8
2019-03-20T06:29:43.989Z,1.2
2019-03-20T06:30:53.486Z,1.6
2019-03-20T06:32:03.053Z,1.3
2019-03-20T06:33:12.588Z,1.2
2019-03-20T06:34:22.156Z,1.6
2019-03-20T06:35:31.645Z,1.2
2019-03-20T06:36:41.207Z,1.2
2019-03-20T06:37:50.737Z,0.9
2019-03-20T06:39:00.271Z,1
2019-03-20T06:40:09.788Z,1
2019-03-20T06:41:19.350Z,1.2
2019-03-20T06:42:28.907Z,0.6
2019-03-20T06:43:38.423Z,0.9
2019-03-20T06:44:48.004Z,1.1
2019-03-20T06:45:57.492Z,1
2019-03-20T06:47:07.046Z,0.9
2019-03-20T06:48:16.564Z,1.2
2019-03-20T06:49:26.101Z,1.1
2019-03-20T06:50:35.668Z,1.1
2019-03-20T06:51:45.205Z,1.4
2019-03-20T06:52:54.737Z,1.3
2019-03-20T06:54:04.265Z,1.5
2019-03-20T06:55:13.816Z,1.1
2019-03-20T06:56:23.333Z,1.2
2019-03-20T06:57:32.874Z,0.9
2019-03-20T06:58:42.419Z,1.4
2019-03-20T06:59:51.955Z,1.1
2019-03-20T07:01:01.488Z,1.3
2019-03-20T07:02:11.038Z,0.6
2019-03-20T07:03:20.566Z,1.5
2019-03-20T07:04:30.110Z,1
2019-03-20T07:05:39.640Z,1
2019-03-20T07:06:49.153Z,1.4
2019-03-20T07:07:58.711Z,1.3
2019-03-20T07:09:08.252Z,1.3
2019-03-20T07:10:17.797Z,1.4
2019-03-20T07:11:27.331Z,1.4
2019-03-20T07:12:36.880Z,1.1
2019-03-20T07:13:46.420Z,1.4
2019-03-20T07:14:55.948Z,1.1
2019-03-20T07:16:05.479Z,1.4
2019-03-20T07:17:15.049Z,1.4
2019-03-20T07:18:24.587Z,1.4
2019-03-20T07:19:34.122Z,1.1
2019-03-20T07:20:43.652Z,0.9
2019-03-20T07:21:53.191Z,1.2
2019-03-20T07:23:02.740Z,1.1
2019-03-20T07:24:12.256Z,1
2019-03-20T07:25:21.785Z,1
2019-03-20T07:26:31.319Z,1.2
2019-03-20T07:27:40.869Z,1
2019-03-20T07:28:50.379Z,1.1
2019-03-20T07:29:59.907Z,1
2019-03-20T07:31:14.998Z,1.2
2019-03-20T07:32:19.990Z,1.6
2019-03-20T07:33:29.536Z,1.4
2019-03-20T07:34:39.047Z,1.1
2019-03-20T07:35:48.585Z,0.9
2019-03-20T07:36:58.107Z,1.4
2019-03-20T07:38:07.639Z,1
2019-03-20T07:39:17.167Z,1
2019-03-20T07:40:26.734Z,1.2
2019-03-20T07:41:36.241Z,0.9
2019-03-20T07:42:45.768Z,1.2
2019-03-20T07:43:55.305Z,1.4
2019-03-20T07:45:04.830Z,1.1
2019-03-20T07:46:14.352Z,1.2
2019-03-20T07:47:23.900Z,1.5
2019-03-20T07:48:33.430Z,1.4
2019-03-20T07:49:42.971Z,1.2
2019-03-20T07:50:52.515Z,1.5
2019-03-20T07:52:02.054Z,1.4
2019-03-20T07:53:11.587Z,1.2
2019-03-20T07:54:21.140Z,1.3
2019-03-20T07:55:30.653Z,1
2019-03-20T07:56:40.185Z,1.4
2019-03-20T07:57:49.718Z,0.9
2019-03-20T07:58:59.261Z,1.5
2019-03-20T08:00:08.788Z,0.8
2019-03-20T08:01:20.235Z,1.3
2019-03-20T08:02:28.852Z,1.1
2019-03-20T08:03:38.449Z,1.2
2019-03-20T08:04:47.930Z,1.4
2019-03-20T08:05:57.473Z,1.6
2019-03-20T08:07:07.000Z,1.3
2019-03-20T08:08:16.544Z,0.9
2019-03-20T08:09:26.092Z,1.2
2019-03-20T08:10:35.601Z,1.4
2019-03-20T08:11:45.137Z,0.9
2019-03-20T08:12:54.710Z,1.4
2019-03-20T08:14:04.244Z,1.6
2019-03-20T08:15:13.773Z,1
2019-03-20T08:16:23.301Z,1
2019-03-20T08:17:32.832Z,0.8
2019-03-20T08:18:42.389Z,1.1
2019-03-20T08:19:51.913Z,0.7
2019-03-20T08:21:01.475Z,1
2019-03-20T08:22:10.980Z,0.9
2019-03-20T08:23:20.547Z,0.7
2019-03-20T08:24:30.057Z,1
2019-03-20T08:25:39.579Z,1
2019-03-20T08:26:49.091Z,0.9
2019-03-20T08:27:58.638Z,0.8
2019-03-20T08:29:08.175Z,1
2019-03-20T08:30:17.702Z,1.2
2019-03-20T08:31:27.231Z,0.9
2019-03-20T08:32:36.772Z,0.9
2019-03-20T08:33:46.322Z,0.9
2019-03-20T08:34:55.855Z,1.1
2019-03-20T08:36:05.398Z,0.5
2019-03-20T08:37:14.926Z,0.8
2019-03-20T08:38:24.492Z,0.8
2019-03-20T08:39:34.044Z,1.1
2019-03-20T08:40:43.575Z,1.1
2019-03-20T08:43:57.559Z,1.2
2019-03-20T08:45:07.086Z,0.8
2019-03-20T08:46:16.665Z,0.8
2019-03-20T08:48:54.762Z,0.8
2019-03-20T08:50:04.346Z,0.7
2019-03-20T08:51:13.904Z,0.9
2019-03-20T08:52:23.473Z,0.8
2019-03-20T08:53:33.030Z,1.1
2019-03-20T08:54:42.598Z,0.6
2019-03-20T08:55:52.163Z,0.7
2019-03-20T08:57:01.712Z,0.7
2019-03-20T08:58:29.266Z,0.8
2019-03-20T08:59:38.846Z,1
2019-03-20T09:00:48.457Z,0.8
2019-03-20T09:01:58.048Z,0.4
2019-03-20T09:03:07.625Z,0.9
2019-03-20T09:04:17.178Z,0.9
2019-03-20T09:05:26.712Z,0.5
2019-03-20T09:06:36.228Z,0.6
2019-03-20T09:07:47.294Z,0.6
2019-03-20T09:08:56.272Z,0.5
2019-03-20T09:10:05.794Z,0.6
2019-03-20T09:11:15.339Z,0.5
2019-03-20T09:12:24.956Z,0.5
2019-03-20T09:13:34.566Z,0.6
2019-03-20T09:14:44.156Z,0.8
2019-03-20T09:15:53.749Z,0.7
2019-03-20T09:17:03.230Z,0.7
2019-03-20T09:18:12.827Z,1
2019-03-20T09:19:22.361Z,0.5
2019-03-20T09:20:31.941Z,0.9
2019-03-20T09:21:41.477Z,0.6
2019-03-20T09:22:51.005Z,0.6
2019-03-20T09:24:00.545Z,0.5
2019-03-20T09:25:10.090Z,0.5
2019-03-20T09:26:19.621Z,0.6
2019-03-20T09:27:29.158Z,0.6
2019-03-20T09:28:38.700Z,0.5
2019-03-20T09:29:48.232Z,0.4
2019-03-20T09:30:57.745Z,0.5
2019-03-20T09:32:07.274Z,0.5
2019-03-20T09:33:16.808Z,0.5
2019-03-20T09:34:26.375Z,0.4
2019-03-20T09:35:35.884Z,0.4
2019-03-20T09:36:45.407Z,0.5
2019-03-20T09:37:54.903Z,0.4
2019-03-20T09:39:04.434Z,0.6
2019-03-20T09:40:13.958Z,0.4
2019-03-20T09:41:23.492Z,0.3
2019-03-20T09:42:33.018Z,0.2
2019-03-20T09:43:42.564Z,0.4
2019-03-20T09:44:52.107Z,0.4
2019-03-20T09:46:01.617Z,0.3
2019-03-20T09:47:11.138Z,0.2
2019-03-20T09:48:20.709Z,0.3
2019-03-20T09:49:30.225Z,0.2
2019-03-20T09:50:39.732Z,0.4
2019-03-20T09:51:49.281Z,0.6
2019-03-20T09:52:58.798Z,0.4
2019-03-20T09:54:08.346Z,0.3
2019-03-20T09:55:17.888Z,0.4
2019-03-20T09:56:27.412Z,0.5
2019-03-20T09:57:36.948Z,0.3
2019-03-20T09:58:46.487Z,0.4
2019-03-20T09:59:56.026Z,0.3
2019-03-20T10:01:05.555Z,0.4
2019-03-20T10:02:15.082Z,0.4
2019-03-20T10:03:24.613Z,0.4
2019-03-20T10:04:34.181Z,0.4
2019-03-20T10:05:43.707Z,0.3
2019-03-20T10:06:53.238Z,0.5
2019-03-20T10:08:02.755Z,0.5
2019-03-20T10:09:12.304Z,0.4
2019-03-20T10:10:22.860Z,0.5
2019-03-20T10:11:32.460Z,0.7
2019-03-20T10:12:42.063Z,0.3
2019-03-20T10:13:51.672Z,0.3
2019-03-20T10:15:01.281Z,0.6
2019-03-20T10:16:10.828Z,0.3
2019-03-20T10:17:20.351Z,0.4
2019-03-20T10:18:33.447Z,0.2
2019-03-20T10:19:43.064Z,0.7
2019-03-20T10:21:10.591Z,0.3
2019-03-20T10:22:20.170Z,0.5
2019-03-20T10:23:29.755Z,0.4
2019-03-20T10:24:39.281Z,0.6
2019-03-20T10:25:48.850Z,0.4
2019-03-20T10:26:58.442Z,0.5
2019-03-20T10:28:07.993Z,0.3
2019-03-20T10:29:17.586Z,0.5
2019-03-20T10:30:27.142Z,0.5
2019-03-20T10:31:36.720Z,0.5
2019-03-20T10:32:46.274Z,0.3
2019-03-20T10:33:55.811Z,0.4
2019-03-20T10:35:05.407Z,0.6
2019-03-20T10:36:14.943Z,0.6
2019-03-20T10:37:24.535Z,0.5
2019-03-20T10:38:34.146Z,0.5
2019-03-20T10:39:43.728Z,0.3
2019-03-20T10:40:53.314Z,0.4
2019-03-20T10:42:02.926Z,0.5
2019-03-20T10:43:12.546Z,0.5
2019-03-20T10:44:23.151Z,0.5
2019-03-20T10:45:32.765Z,0.5
2019-03-20T10:46:42.380Z,0.6
2019-03-20T10:47:53.111Z,0.4
2019-03-20T10:49:02.583Z,0.4
2019-03-20T10:50:12.187Z,0.3
2019-03-20T10:51:21.820Z,0.5
2019-03-20T10:52:31.423Z,0.6
2019-03-20T10:53:41.040Z,0.3
2019-03-20T10:54:50.676Z,0.6
2019-03-20T10:56:00.266Z,0.4
2019-03-20T10:57:09.876Z,0.5
2019-03-20T10:58:19.483Z,0.3
2019-03-20T10:59:29.106Z,0.6
2019-03-20T11:00:40.637Z,0.5
2019-03-20T11:01:49.344Z,0.4
2019-03-20T11:02:58.945Z,0.6
2019-03-20T11:04:08.568Z,0.4
2019-03-20T11:05:18.167Z,0.4
2019-03-20T11:06:28.111Z,0.4
2019-03-20T11:07:37.738Z,0.5
2019-03-20T11:08:47.343Z,0.3
2019-03-20T11:09:56.970Z,0.6
2019-03-20T11:11:06.571Z,0.4
2019-03-20T11:12:16.184Z,0.5
2019-03-20T11:13:25.793Z,1
2019-03-20T11:14:35.398Z,0.6
2019-03-20T11:15:45.040Z,0.5
2019-03-20T11:16:54.651Z,0.6
2019-03-20T11:18:04.258Z,0.4
2019-03-20T11:19:13.872Z,0.5
2019-03-20T11:20:23.484Z,0.7
2019-03-20T11:21:33.101Z,0.4
2019-03-20T11:22:42.698Z,0.6
2019-03-20T11:23:52.302Z,0.7
2019-03-20T11:25:01.926Z,0.6
2019-03-20T11:26:11.573Z,0.6
2019-03-20T11:27:21.169Z,0.5
2019-03-20T11:28:30.785Z,0.4
2019-03-20T11:29:40.402Z,0.7
2019-03-20T11:30:50.019Z,0.5
2019-03-20T11:31:59.633Z,0.5
2019-03-20T11:33:09.234Z,0.5
2019-03-20T11:34:18.838Z,0.4
2019-03-20T11:35:28.471Z,0.5
2019-03-20T11:36:38.092Z,0.6
2019-03-20T11:37:47.690Z,0.5
2019-03-20T11:38:57.296Z,0.4
2019-03-20T11:40:06.926Z,0.5
2019-03-20T11:41:16.527Z,0.4
2019-03-20T11:42:26.132Z,0.5
2019-03-20T11:43:35.794Z,0.5
2019-03-20T11:44:45.346Z,0.7
2019-03-20T11:45:54.962Z,0.6
2019-03-20T11:47:04.570Z,0.4
2019-03-20T11:48:14.176Z,0.6
2019-03-20T11:49:23.812Z,0.6
2019-03-20T11:50:33.416Z,0.5
2019-03-20T11:51:43.020Z,0.7
2019-03-20T11:52:52.624Z,0.7
2019-03-20T11:54:02.240Z,0.5
2019-03-20T11:55:11.870Z,0.3
2019-03-20T11:56:21.471Z,0.8
2019-03-20T11:57:31.079Z,0.7
2019-03-20T11:58:40.691Z,0.6
2019-03-20T11:59:50.309Z,0.9
2019-03-20T12:00:59.920Z,0.8
2019-03-20T12:02:09.683Z,0.6
2019-03-20T12:03:19.175Z,0.5
2019-03-20T12:04:28.797Z,0.6
2019-03-20T12:05:38.404Z,0.5
2019-03-20T12:06:48.036Z,0.6
2019-03-20T12:07:57.653Z,0.6
2019-03-20T12:09:07.239Z,0.5
2019-03-20T12:10:16.859Z,0.9
2019-03-20T12:11:26.486Z,0.8
2019-03-20T12:12:36.082Z,0.6
2019-03-20T12:13:45.703Z,0.7
2019-03-20T12:14:54.308Z,0.5
2019-03-20T12:16:03.935Z,0.4
2019-03-20T12:17:13.547Z,0.5
2019-03-20T12:18:23.159Z,0.5
2019-03-20T12:19:44.423Z,0.7
2019-03-20T12:20:43.361Z,0.5
2019-03-20T12:21:52.976Z,0.5
2019-03-20T12:23:02.597Z,0.6
2019-03-20T12:24:12.198Z,0.6
2019-03-20T12:25:21.834Z,0.6
2019-03-20T12:26:31.461Z,0.6
2019-03-20T12:27:41.056Z,0.6
2019-03-20T12:28:50.755Z,0.7
2019-03-20T12:30:00.369Z,0.4
2019-03-20T12:31:09.985Z,0.5
2019-03-20T12:32:19.605Z,0.6
2019-03-20T12:33:29.217Z,0.5
2019-03-20T12:34:38.827Z,0.6
2019-03-20T12:35:48.436Z,1
2019-03-20T12:36:58.043Z,0.7
2019-03-20T12:38:14.049Z,0.6
2019-03-20T12:39:18.239Z,0.6
2019-03-20T12:40:27.848Z,0.7
2019-03-20T12:41:37.460Z,0.6
2019-03-20T12:42:47.080Z,0.8
2019-03-20T12:43:56.714Z,0.5
2019-03-20T12:45:06.332Z,0.8
2019-03-20T12:46:15.946Z,0.5
2019-03-20T12:47:25.571Z,0.7
2019-03-20T12:48:35.185Z,0.6
2019-03-20T12:49:44.799Z,0.5
2019-03-20T12:50:54.399Z,0.5
2019-03-20T12:52:03.997Z,0.4
2019-03-20T12:53:13.889Z,0.8
2019-03-20T12:54:23.492Z,0.6
2019-03-20T12:55:33.107Z,0.6
2019-03-20T12:56:43.700Z,0.6
2019-03-20T12:57:53.317Z,0.5
2019-03-20T12:59:02.949Z,0.5
2019-03-20T13:00:12.656Z,0.8
2019-03-20T13:01:22.158Z,0.5
2019-03-20T13:02:31.767Z,0.7
2019-03-20T13:03:41.396Z,0.5
2019-03-20T13:04:51.082Z,0.9
2019-03-20T13:06:00.691Z,0.6
2019-03-20T13:07:10.363Z,0.5
2019-03-20T13:08:20.003Z,0.5
2019-03-20T13:09:29.621Z,0.9
2019-03-20T13:10:39.231Z,0.5
2019-03-20T13:11:48.844Z,0.6
2019-03-20T13:12:58.575Z,0.6
2019-03-20T13:14:08.087Z,0.7
2019-03-20T13:15:17.722Z,0.8
2019-03-20T13:16:27.334Z,0.5
2019-03-20T13:17:36.946Z,0.4
2019-03-20T13:18:46.597Z,0.5
2019-03-20T13:19:56.220Z,0.5
2019-03-20T13:21:05.931Z,0.5
2019-03-20T13:22:15.658Z,0.7
2019-03-20T13:23:25.386Z,0.5
2019-03-20T13:24:35.126Z,0.5
2019-03-20T13:25:44.840Z,0.5
2019-03-20T13:26:54.463Z,0.5
2019-03-20T13:28:04.065Z,0.7
2019-03-20T13:29:13.679Z,0.7
2019-03-20T13:30:23.273Z,0.6
2019-03-20T13:31:32.872Z,0.8
2019-03-20T13:32:42.480Z,0.8
2019-03-20T13:33:52.091Z,0.6
2019-03-20T13:35:01.695Z,0.6
2019-03-20T13:36:11.306Z,0.6
2019-03-20T13:37:20.912Z,0.9
2019-03-20T13:38:30.530Z,0.7
2019-03-20T13:39:40.175Z,0.8
2019-03-20T13:40:49.789Z,0.5
2019-03-20T13:41:59.400Z,0.5
2019-03-20T13:43:09.002Z,0.8
2019-03-20T13:44:18.631Z,0.6
2019-03-20T13:45:28.221Z,0.5
2019-03-20T13:46:37.828Z,0.6
2019-03-20T13:47:47.433Z,0.7
2019-03-20T13:48:57.032Z,0.7
2019-03-20T13:50:06.654Z,0.5
2019-03-20T13:51:16.251Z,0.6
2019-03-20T13:52:25.858Z,0.5
2019-03-20T13:53:35.478Z,0.5
2019-03-20T13:54:45.100Z,0.7
2019-03-20T13:55:54.712Z,0.4
2019-03-20T13:57:04.312Z,0.7
2019-03-20T13:58:13.933Z,0.5
2019-03-20T13:59:23.545Z,0.5
2019-03-20T14:00:33.169Z,0.6
2019-03-20T14:01:42.802Z,0.8
2019-03-20T14:02:52.394Z,0.7
2019-03-20T14:04:02.002Z,0.5
2019-03-20T14:05:11.635Z,0.6
2019-03-20T14:06:21.334Z,1.2
2019-03-20T14:07:30.945Z,0.8
2019-03-20T14:08:40.552Z,0.5
2019-03-20T14:09:50.181Z,0.6
2019-03-20T14:10:59.781Z,0.6
2019-03-20T14:12:09.383Z,0.6
2019-03-20T14:13:18.981Z,0.5
2019-03-20T14:14:28.617Z,0.4
2019-03-20T14:15:38.230Z,0.5
2019-03-20T14:16:47.825Z,0.5
2019-03-20T14:17:57.442Z,0.6
2019-03-20T14:19:07.042Z,0.7
2019-03-20T14:20:16.663Z,0.9
2019-03-20T14:21:26.270Z,0.8
2019-03-20T14:22:35.880Z,0.6
2019-03-20T14:23:45.501Z,0.9
2019-03-20T14:24:55.106Z,0.5
2019-03-20T14:26:04.730Z,0.6
2019-03-20T14:27:14.334Z,1.1
2019-03-20T14:28:23.949Z,0.5
2019-03-20T14:29:33.544Z,0.8
2019-03-20T14:30:43.157Z,0.9
2019-03-20T14:31:52.764Z,0.6
2019-03-20T14:33:02.381Z,0.6
2019-03-20T14:34:12.015Z,0.7
2019-03-20T14:35:21.638Z,0.8
2019-03-20T14:36:31.242Z,0.5
2019-03-20T14:37:40.846Z,0.5
2019-03-20T14:38:50.463Z,0.4
2019-03-20T14:40:00.085Z,0.5
2019-03-20T14:41:09.692Z,0.6
2019-03-20T14:42:19.317Z,0.7
2019-03-20T14:43:28.923Z,0.5
2019-03-20T14:44:38.528Z,0.6
2019-03-20T14:45:48.153Z,0.6
2019-03-20T14:46:57.759Z,0.6
2019-03-20T14:48:07.360Z,0.5
2019-03-20T14:49:16.983Z,0.7
2019-03-20T14:50:26.632Z,0.5
2019-03-20T14:51:36.224Z,0.6
2019-03-20T14:52:45.829Z,0.5
2019-03-20T14:53:55.442Z,0.8
2019-03-20T14:55:05.059Z,0.7
2019-03-20T14:56:14.704Z,0.6
2019-03-20T14:57:24.307Z,0.6
2019-03-20T14:58:33.923Z,0.6
2019-03-20T14:59:43.515Z,0.7
2019-03-20T15:00:53.141Z,0.6
2019-03-20T15:02:02.758Z,0.7
2019-03-20T15:03:12.354Z,0.7
2019-03-20T15:04:21.959Z,0.6
2019-03-20T15:05:31.585Z,0.6
2019-03-20T15:06:41.193Z,0.6
2019-03-20T15:07:50.790Z,0.6
2019-03-20T15:09:00.418Z,0.7
2019-03-20T15:10:10.007Z,0.6
2019-03-20T15:11:19.660Z,0.9
2019-03-20T15:12:29.271Z,0.6
2019-03-20T15:13:38.882Z,0.7
2019-03-20T15:14:48.486Z,0.6
2019-03-20T15:15:58.117Z,0.6
2019-03-20T15:17:07.765Z,0.9
2019-03-20T15:18:17.369Z,0.6
2019-03-20T15:19:26.996Z,0.5
2019-03-20T15:20:36.619Z,0.5
2019-03-20T15:21:46.235Z,0.6
2019-03-20T15:22:55.865Z,0.6
2019-03-20T15:24:05.459Z,0.6
2019-03-20T15:25:15.074Z,0.6
2019-03-20T15:26:24.698Z,0.6
2019-03-20T15:27:34.298Z,0.7
2019-03-20T15:28:43.911Z,0.6
2019-03-20T15:29:53.568Z,0.4
2019-03-20T15:31:03.189Z,0.5
2019-03-20T15:32:12.816Z,0.6
2019-03-20T15:33:22.418Z,0.6
2019-03-20T15:34:32.051Z,0.7
2019-03-20T15:35:41.644Z,0.6
2019-03-20T15:36:51.247Z,0.7
2019-03-20T15:38:00.841Z,0.7
2019-03-20T15:39:10.467Z,0.5
2019-03-20T15:40:20.073Z,0.5
2019-03-20T15:41:29.711Z,0.5
2019-03-20T15:42:39.306Z,0.5
2019-03-20T15:43:48.909Z,0.5
2019-03-20T15:44:58.513Z,0.5
2019-03-20T15:46:08.133Z,0.8
2019-03-20T15:47:17.737Z,0.7
2019-03-20T15:48:27.370Z,0.7
2019-03-20T15:49:36.981Z,0.7
2019-03-20T15:50:47.593Z,0.7
2019-03-20T15:51:57.211Z,0.7
2019-03-20T15:53:06.817Z,0.7
2019-03-20T15:54:16.431Z,0.8
2019-03-20T15:55:26.028Z,0.5
2019-03-20T15:56:35.647Z,0.6
2019-03-20T15:57:45.278Z,0.6
2019-03-20T15:58:54.863Z,0.8
2019-03-20T16:00:04.548Z,0.8
2019-03-20T16:01:14.317Z,0.5
2019-03-20T16:02:24.051Z,0.8
2019-03-20T16:03:33.663Z,0.8
2019-03-20T16:04:43.277Z,0.7
2019-03-20T16:05:52.957Z,1
2019-03-20T16:07:02.524Z,0.7